LFAT/LTQ METAR and TAF weather

Enter ICAO airport designator
Station Type Date Time Source
LFAT METAR 2019/06/16 20:30 UTC NOAA

LFAT 162030Z AUTO 00000KT CAVOK 15/11 Q1020


Station Type Date Time Source
LFAT Decoded METAR 2019/06/16 20:30 UTC NOAA

Le Touquet, France (LFAT) 50-31N 001-37E 14M
Jun 16, 2019 - 04:30 PM EDT / 2019.06.16 2030 UTC
Wind: Calm:0
Visibility: greater than 7 mile(s):0
Temperature: 59 F (15 C)
Dew Point: 51 F (11 C)
Relative Humidity: 76%
Pressure (altimeter): 30.12 in. Hg (1020 hPa)
ob: LFAT 162030Z AUTO 00000KT CAVOK 15/11 Q1020
cycle: 20

Station Type Date Time Source
LFAT TAF 2018/07/14 09:21 UTC NOAA

TAF TAF LFAT 140800Z 1409/1421 09004KT 8000 NSC
BECMG 1409/1411 30010KT

Example: see airport list